Nathrop, Colorado
Current Conditions -  °F | °C
As of 9:55 PM on Saturday 25 Oct 2014 (Local Time) from KAEJ Reporting Station
Clear Clear  
Wind Chill:   Ceiling: Unl
Heat Index:   Visibility: 10mi
Dew Point: -8°   Wind: 5mph
Humidity: 35%   Direction: 310°NW
Pressure: 30.24"   Gusts: NA
Location:  38.75°N, 106.08°W
Report Text: KAEJ 260355Z AUTO 31004KT 10SM CLR 07/M07 A3024 RMK AO2 T00701075
Loading
Personal Weather Stations






























Interactive Weather Map
Tropical Storm Tracking
New forecast layout! Learn more

10-Day Weather Forecast

Advertisements
Track Severe Weather on mobile